CheckWX is a tool to help pilots better visualize weather data.  It is not intended as a substitute for an official pre-flight weather briefing.

05:19:18 UTC

KJWY METAR
Mid-Way Regional Airport
Midlothian/Waxahachie, Texas, USA
Current

24 mins ago

KJWY 200455Z AUTO 32003KT 5SM BR OVC004 03/03 A2996 RMK AO2 T00320032
Observed
Feb-20 @ 04:55 UTC
Wind
  • 320° at 3 KTS
Visibility
8,047 meters
Flight Rules
LIFR
Conditions
Mist
Cloud Levels
  • Overcast at 400' AGL
Temperature
C / 37°F
Dewpoint
C / 37°F
Humidity
100%
Altimeter
29.96" Hg
Pressure
1014.52 hPa
Previous

44 mins ago

KJWY 200435Z AUTO 32005KT 5SM BR OVC004 03/03 A2996 RMK AO2 T00320032
Observed
Feb-20 @ 04:35 UTC
Wind
  • 320° at 5 KTS
Visibility
8,047 meters
Flight Rules
LIFR
Conditions
Mist
Cloud Levels
  • Overcast at 400' AGL
Temperature
C / 37°F
Dewpoint
C / 37°F
Humidity
100%
Altimeter
29.96" Hg
Pressure
1014.52 hPa
Previous

1 hour ago

KJWY 200415Z AUTO 32003KT 4SM BR BKN006 OVC011 03/03 A2995 RMK AO2 T00320032
Observed
Feb-20 @ 04:15 UTC
Wind
  • 320° at 3 KTS
Visibility
6,437 meters
Flight Rules
IFR
Conditions
Mist
Cloud Levels
  • Broken at 600' AGL
  • Overcast at 1,100' AGL
Temperature
C / 37°F
Dewpoint
C / 37°F
Humidity
100%
Altimeter
29.95" Hg
Pressure
1014.22 hPa